sensor_id;sensor_type;location;lat;lon;timestamp;temperature;humidity
5246;DHT22;54412;51.206;6.888;2023-12-04T00:00:36;1.60;99.90
5246;DHT22;54412;51.206;6.888;2023-12-04T00:03:02;1.60;99.90
5246;DHT22;54412;51.206;6.888;2023-12-04T00:05:27;1.60;99.90
5246;DHT22;54412;51.206;6.888;2023-12-04T00:07:53;1.60;99.90
5246;DHT22;54412;51.206;6.888;2023-12-04T00:10:20;1.70;99.90
5246;DHT22;54412;51.206;6.888;2023-12-04T00:12:46;1.60;99.90
5246;DHT22;54412;51.206;6.888;2023-12-04T00:15:11;1.70;99.90
5246;DHT22;54412;51.206;6.888;2023-12-04T00:17:37;1.60;99.90
5246;DHT22;54412;51.206;6.888;2023-12-04T00:20:08;1.70;99.90
5246;DHT22;54412;51.206;6.888;2023-12-04T00:22:35;1.60;99.90
5246;DHT22;54412;51.206;6.888;2023-12-04T00:25:02;1.60;99.90
5246;DHT22;54412;51.206;6.888;2023-12-04T00:27:29;1.70;99.90
5246;DHT22;54412;51.206;6.888;2023-12-04T00:29:55;1.70;99.90
5246;DHT22;54412;51.206;6.888;2023-12-04T00:32:21;1.70;99.90
5246;DHT22;54412;51.206;6.888;2023-12-04T00:34:47;1.60;99.90
5246;DHT22;54412;51.206;6.888;2023-12-04T00:37:13;1.50;99.90
5246;DHT22;54412;51.206;6.888;2023-12-04T00:39:39;1.60;99.90
5246;DHT22;54412;51.206;6.888;2023-12-04T00:42:05;1.60;99.90
5246;DHT22;54412;51.206;6.888;2023-12-04T00:44:31;1.70;99.90
5246;DHT22;54412;51.206;6.888;2023-12-04T00:46:57;1.70;99.90
5246;DHT22;54412;51.206;6.888;2023-12-04T00:49:23;1.70;99.90
5246;DHT22;54412;51.206;6.888;2023-12-04T00:51:49;1.80;99.90
5246;DHT22;54412;51.206;6.888;2023-12-04T00:54:15;1.70;99.90
5246;DHT22;54412;51.206;6.888;2023-12-04T00:56:41;1.70;99.90
5246;DHT22;54412;51.206;6.888;2023-12-04T00:59:10;1.70;99.90
5246;DHT22;54412;51.206;6.888;2023-12-04T01:01:36;1.70;99.90
5246;DHT22;54412;51.206;6.888;2023-12-04T01:04:03;1.70;99.90
5246;DHT22;54412;51.206;6.888;2023-12-04T01:06:30;1.70;99.90
5246;DHT22;54412;51.206;6.888;2023-12-04T01:08:56;1.70;99.90
5246;DHT22;54412;51.206;6.888;2023-12-04T01:11:22;1.70;99.90
5246;DHT22;54412;51.206;6.888;2023-12-04T01:13:48;1.80;99.90
5246;DHT22;54412;51.206;6.888;2023-12-04T01:16:15;1.80;99.90
5246;DHT22;54412;51.206;6.888;2023-12-04T01:18:41;1.80;99.90
5246;DHT22;54412;51.206;6.888;2023-12-04T01:21:08;1.90;99.90
5246;DHT22;54412;51.206;6.888;2023-12-04T01:23:36;1.80;99.90
5246;DHT22;54412;51.206;6.888;2023-12-04T01:26:03;1.90;99.90
5246;DHT22;54412;51.206;6.888;2023-12-04T01:28:29;1.80;99.90
5246;DHT22;54412;51.206;6.888;2023-12-04T01:30:55;1.70;99.90
5246;DHT22;54412;51.206;6.888;2023-12-04T01:33:21;1.70;99.90
5246;DHT22;54412;51.206;6.888;2023-12-04T01:35:47;1.70;99.90
5246;DHT22;54412;51.206;6.888;2023-12-04T01:38:12;1.70;99.90
5246;DHT22;54412;51.206;6.888;2023-12-04T01:40:38;1.70;99.90
5246;DHT22;54412;51.206;6.888;2023-12-04T01:43:03;1.70;99.90
5246;DHT22;54412;51.206;6.888;2023-12-04T01:45:30;1.70;99.90
5246;DHT22;54412;51.206;6.888;2023-12-04T01:47:57;1.80;99.90
5246;DHT22;54412;51.206;6.888;2023-12-04T01:50:24;1.70;99.90
5246;DHT22;54412;51.206;6.888;2023-12-04T01:52:51;1.70;99.90
5246;DHT22;54412;51.206;6.888;2023-12-04T01:55:19;1.70;99.90
5246;DHT22;54412;51.206;6.888;2023-12-04T01:57:45;1.80;99.90
5246;DHT22;54412;51.206;6.888;2023-12-04T02:00:12;1.80;99.90
5246;DHT22;54412;51.206;6.888;2023-12-04T02:02:39;1.80;99.90
5246;DHT22;54412;51.206;6.888;2023-12-04T02:05:07;1.80;99.90
5246;DHT22;54412;51.206;6.888;2023-12-04T02:07:34;1.70;99.90
5246;DHT22;54412;51.206;6.888;2023-12-04T02:10:02;1.70;99.90
5246;DHT22;54412;51.206;6.888;2023-12-04T02:12:29;1.70;99.90
5246;DHT22;54412;51.206;6.888;2023-12-04T02:14:55;1.70;99.90
5246;DHT22;54412;51.206;6.888;2023-12-04T02:17:22;1.80;99.90
5246;DHT22;54412;51.206;6.888;2023-12-04T02:19:50;1.80;99.90
5246;DHT22;54412;51.206;6.888;2023-12-04T02:22:16;1.80;99.90
5246;DHT22;54412;51.206;6.888;2023-12-04T02:24:44;1.70;99.90
5246;DHT22;54412;51.206;6.888;2023-12-04T02:27:20;1.80;99.90
5246;DHT22;54412;51.206;6.888;2023-12-04T02:29:58;1.80;99.90
5246;DHT22;54412;51.206;6.888;2023-12-04T02:32:28;1.80;99.90
5246;DHT22;54412;51.206;6.888;2023-12-04T02:34:57;1.80;99.90
5246;DHT22;54412;51.206;6.888;2023-12-04T02:37:28;1.70;99.90
5246;DHT22;54412;51.206;6.888;2023-12-04T02:39:54;1.70;99.90
5246;DHT22;54412;51.206;6.888;2023-12-04T02:42:21;1.70;99.90
5246;DHT22;54412;51.206;6.888;2023-12-04T02:44:50;1.60;99.90
5246;DHT22;54412;51.206;6.888;2023-12-04T02:47:16;1.70;99.90
5246;DHT22;54412;51.206;6.888;2023-12-04T02:49:42;1.80;99.90
5246;DHT22;54412;51.206;6.888;2023-12-04T02:52:08;1.80;99.90
5246;DHT22;54412;51.206;6.888;2023-12-04T02:54:34;1.90;99.90
5246;DHT22;54412;51.206;6.888;2023-12-04T02:57:00;1.80;99.90
5246;DHT22;54412;51.206;6.888;2023-12-04T02:59:25;1.90;99.90
5246;DHT22;54412;51.206;6.888;2023-12-04T03:01:51;1.80;99.90
5246;DHT22;54412;51.206;6.888;2023-12-04T03:04:18;1.90;99.90
5246;DHT22;54412;51.206;6.888;2023-12-04T03:06:44;1.80;99.90
5246;DHT22;54412;51.206;6.888;2023-12-04T03:09:10;1.90;99.90
5246;DHT22;54412;51.206;6.888;2023-12-04T03:11:39;2.00;99.90
5246;DHT22;54412;51.206;6.888;2023-12-04T03:14:05;1.90;99.90
5246;DHT22;54412;51.206;6.888;2023-12-04T03:16:31;1.90;99.90
5246;DHT22;54412;51.206;6.888;2023-12-04T03:18:57;1.90;99.90
5246;DHT22;54412;51.206;6.888;2023-12-04T03:21:23;1.80;99.90
5246;DHT22;54412;51.206;6.888;2023-12-04T03:23:49;1.80;99.90
5246;DHT22;54412;51.206;6.888;2023-12-04T03:26:14;1.80;99.90
5246;DHT22;54412;51.206;6.888;2023-12-04T03:28:40;1.90;99.90
5246;DHT22;54412;51.206;6.888;2023-12-04T03:31:06;1.90;99.90
5246;DHT22;54412;51.206;6.888;2023-12-04T03:33:32;1.90;99.90
5246;DHT22;54412;51.206;6.888;2023-12-04T03:35:59;2.00;99.90
5246;DHT22;54412;51.206;6.888;2023-12-04T03:38:25;1.90;99.90
5246;DHT22;54412;51.206;6.888;2023-12-04T03:40:51;1.90;99.90
5246;DHT22;54412;51.206;6.888;2023-12-04T03:43:16;1.90;99.90
5246;DHT22;54412;51.206;6.888;2023-12-04T03:45:42;1.90;99.90
5246;DHT22;54412;51.206;6.888;2023-12-04T03:48:08;1.80;99.90
5246;DHT22;54412;51.206;6.888;2023-12-04T03:50:33;1.80;99.90
5246;DHT22;54412;51.206;6.888;2023-12-04T03:52:59;1.80;99.90
5246;DHT22;54412;51.206;6.888;2023-12-04T03:55:25;1.90;99.90
5246;DHT22;54412;51.206;6.888;2023-12-04T03:57:52;2.00;99.90
5246;DHT22;54412;51.206;6.888;2023-12-04T04:00:19;1.90;99.90
5246;DHT22;54412;51.206;6.888;2023-12-04T04:02:45;2.00;99.90
5246;DHT22;54412;51.206;6.888;2023-12-04T04:05:11;1.90;99.90
5246;DHT22;54412;51.206;6.888;2023-12-04T04:07:37;1.90;99.90
5246;DHT22;54412;51.206;6.888;2023-12-04T04:10:03;2.00;99.90
5246;DHT22;54412;51.206;6.888;2023-12-04T04:12:32;2.00;99.90
5246;DHT22;54412;51.206;6.888;2023-12-04T04:14:58;2.00;99.90
5246;DHT22;54412;51.206;6.888;2023-12-04T04:17:24;1.90;99.90
5246;DHT22;54412;51.206;6.888;2023-12-04T04:19:52;1.90;99.90
5246;DHT22;54412;51.206;6.888;2023-12-04T04:22:19;2.00;99.90
5246;DHT22;54412;51.206;6.888;2023-12-04T04:24:45;1.90;99.90
5246;DHT22;54412;51.206;6.888;2023-12-04T04:27:10;1.90;99.90
5246;DHT22;54412;51.206;6.888;2023-12-04T04:29:36;2.00;99.90
5246;DHT22;54412;51.206;6.888;2023-12-04T04:32:02;1.80;99.90
5246;DHT22;54412;51.206;6.888;2023-12-04T04:34:27;1.90;99.90
5246;DHT22;54412;51.206;6.888;2023-12-04T04:36:53;1.90;99.90
5246;DHT22;54412;51.206;6.888;2023-12-04T04:39:19;1.80;99.90
5246;DHT22;54412;51.206;6.888;2023-12-04T04:41:44;1.80;99.90
5246;DHT22;54412;51.206;6.888;2023-12-04T04:44:10;1.80;99.90
5246;DHT22;54412;51.206;6.888;2023-12-04T04:46:36;1.80;99.90
5246;DHT22;54412;51.206;6.888;2023-12-04T04:49:01;1.80;99.90
5246;DHT22;54412;51.206;6.888;2023-12-04T04:51:28;1.80;99.90
5246;DHT22;54412;51.206;6.888;2023-12-04T04:53:54;1.80;99.90
5246;DHT22;54412;51.206;6.888;2023-12-04T04:56:20;1.90;99.90
5246;DHT22;54412;51.206;6.888;2023-12-04T04:58:46;1.90;99.90
5246;DHT22;54412;51.206;6.888;2023-12-04T05:01:12;1.90;99.90
5246;DHT22;54412;51.206;6.888;2023-12-04T05:03:37;2.00;99.90
5246;DHT22;54412;51.206;6.888;2023-12-04T05:06:03;1.90;99.90
5246;DHT22;54412;51.206;6.888;2023-12-04T05:08:29;1.90;99.90
5246;DHT22;54412;51.206;6.888;2023-12-04T05:10:55;1.90;99.90
5246;DHT22;54412;51.206;6.888;2023-12-04T05:13:21;1.90;99.90
5246;DHT22;54412;51.206;6.888;2023-12-04T05:15:46;1.90;99.90
5246;DHT22;54412;51.206;6.888;2023-12-04T05:18:12;2.00;99.90
5246;DHT22;54412;51.206;6.888;2023-12-04T05:20:37;2.00;99.90
5246;DHT22;54412;51.206;6.888;2023-12-04T05:23:03;1.90;99.90
5246;DHT22;54412;51.206;6.888;2023-12-04T05:25:29;1.90;99.90
5246;DHT22;54412;51.206;6.888;2023-12-04T05:27:54;1.80;99.90
5246;DHT22;54412;51.206;6.888;2023-12-04T05:30:20;1.80;99.90
5246;DHT22;54412;51.206;6.888;2023-12-04T05:32:46;1.70;99.90
5246;DHT22;54412;51.206;6.888;2023-12-04T05:35:11;1.80;99.90
5246;DHT22;54412;51.206;6.888;2023-12-04T05:37:37;1.90;99.90
5246;DHT22;54412;51.206;6.888;2023-12-04T05:40:03;1.80;99.90
5246;DHT22;54412;51.206;6.888;2023-12-04T05:42:30;1.80;99.90
5246;DHT22;54412;51.206;6.888;2023-12-04T05:44:55;1.70;99.90
5246;DHT22;54412;51.206;6.888;2023-12-04T05:47:22;1.80;99.90
5246;DHT22;54412;51.206;6.888;2023-12-04T05:49:48;1.80;99.90
5246;DHT22;54412;51.206;6.888;2023-12-04T05:52:14;1.80;99.90
5246;DHT22;54412;51.206;6.888;2023-12-04T05:54:39;1.90;99.90
5246;DHT22;54412;51.206;6.888;2023-12-04T05:57:05;1.90;99.90
5246;DHT22;54412;51.206;6.888;2023-12-04T05:59:31;1.80;99.90
5246;DHT22;54412;51.206;6.888;2023-12-04T06:01:56;1.90;99.90
5246;DHT22;54412;51.206;6.888;2023-12-04T06:04:22;1.80;99.90
5246;DHT22;54412;51.206;6.888;2023-12-04T06:06:48;1.80;99.90
5246;DHT22;54412;51.206;6.888;2023-12-04T06:09:13;1.80;99.90
5246;DHT22;54412;51.206;6.888;2023-12-04T06:11:42;1.80;99.90
5246;DHT22;54412;51.206;6.888;2023-12-04T06:14:07;1.80;99.90
5246;DHT22;54412;51.206;6.888;2023-12-04T06:16:33;1.90;99.90
5246;DHT22;54412;51.206;6.888;2023-12-04T06:18:59;1.90;99.90
5246;DHT22;54412;51.206;6.888;2023-12-04T06:21:24;1.90;99.90
5246;DHT22;54412;51.206;6.888;2023-12-04T06:23:50;1.80;99.90
5246;DHT22;54412;51.206;6.888;2023-12-04T06:26:16;1.80;99.90
5246;DHT22;54412;51.206;6.888;2023-12-04T06:28:43;1.70;99.90
5246;DHT22;54412;51.206;6.888;2023-12-04T06:31:11;1.70;99.90
5246;DHT22;54412;51.206;6.888;2023-12-04T06:33:37;1.70;99.90
5246;DHT22;54412;51.206;6.888;2023-12-04T06:36:05;1.70;99.90
5246;DHT22;54412;51.206;6.888;2023-12-04T06:38:32;1.70;99.90
5246;DHT22;54412;51.206;6.888;2023-12-04T06:41:01;1.70;99.90
5246;DHT22;54412;51.206;6.888;2023-12-04T06:43:27;1.70;99.90
5246;DHT22;54412;51.206;6.888;2023-12-04T06:45:54;2.30;99.90
5246;DHT22;54412;51.206;6.888;2023-12-04T06:48:22;2.50;99.90
5246;DHT22;54412;51.206;6.888;2023-12-04T06:50:48;2.50;99.90
5246;DHT22;54412;51.206;6.888;2023-12-04T06:53:14;2.40;99.90
5246;DHT22;54412;51.206;6.888;2023-12-04T06:55:40;2.00;99.90
5246;DHT22;54412;51.206;6.888;2023-12-04T06:58:05;1.90;99.90
5246;DHT22;54412;51.206;6.888;2023-12-04T07:00:31;1.80;99.90
5246;DHT22;54412;51.206;6.888;2023-12-04T07:02:57;1.80;99.90
5246;DHT22;54412;51.206;6.888;2023-12-04T07:05:22;1.80;99.90
5246;DHT22;54412;51.206;6.888;2023-12-04T07:07:48;1.80;99.90
5246;DHT22;54412;51.206;6.888;2023-12-04T07:10:14;1.80;99.90
5246;DHT22;54412;51.206;6.888;2023-12-04T07:12:41;1.70;99.90
5246;DHT22;54412;51.206;6.888;2023-12-04T07:15:08;1.80;99.90
5246;DHT22;54412;51.206;6.888;2023-12-04T07:17:35;1.80;99.90
5246;DHT22;54412;51.206;6.888;2023-12-04T07:20:01;1.80;99.90
5246;DHT22;54412;51.206;6.888;2023-12-04T07:22:27;1.70;99.90
5246;DHT22;54412;51.206;6.888;2023-12-04T07:24:53;1.70;99.90
5246;DHT22;54412;51.206;6.888;2023-12-04T07:27:18;1.70;99.90
5246;DHT22;54412;51.206;6.888;2023-12-04T07:29:44;1.70;99.90
5246;DHT22;54412;51.206;6.888;2023-12-04T07:32:10;1.80;99.90
5246;DHT22;54412;51.206;6.888;2023-12-04T07:34:36;1.80;99.90
5246;DHT22;54412;51.206;6.888;2023-12-04T07:37:02;1.70;99.90
5246;DHT22;54412;51.206;6.888;2023-12-04T07:39:28;1.70;99.90
5246;DHT22;54412;51.206;6.888;2023-12-04T07:41:54;1.70;99.90
5246;DHT22;54412;51.206;6.888;2023-12-04T07:44:20;1.80;99.90
5246;DHT22;54412;51.206;6.888;2023-12-04T07:46:45;1.80;99.90
5246;DHT22;54412;51.206;6.888;2023-12-04T07:49:12;1.90;99.90
5246;DHT22;54412;51.206;6.888;2023-12-04T07:51:37;1.90;99.90
5246;DHT22;54412;51.206;6.888;2023-12-04T07:54:03;1.90;99.90
5246;DHT22;54412;51.206;6.888;2023-12-04T07:56:29;1.90;99.90
5246;DHT22;54412;51.206;6.888;2023-12-04T07:58:55;2.00;99.90
5246;DHT22;54412;51.206;6.888;2023-12-04T08:01:21;2.00;99.90
5246;DHT22;54412;51.206;6.888;2023-12-04T08:03:48;2.00;99.90
5246;DHT22;54412;51.206;6.888;2023-12-04T08:06:14;2.00;99.90
5246;DHT22;54412;51.206;6.888;2023-12-04T08:08:41;2.10;99.90
5246;DHT22;54412;51.206;6.888;2023-12-04T08:11:09;2.10;99.90
5246;DHT22;54412;51.206;6.888;2023-12-04T08:13:35;2.00;99.90
5246;DHT22;54412;51.206;6.888;2023-12-04T08:16:02;2.10;99.90
5246;DHT22;54412;51.206;6.888;2023-12-04T08:18:28;2.10;99.90
5246;DHT22;54412;51.206;6.888;2023-12-04T08:20:54;2.20;99.90
5246;DHT22;54412;51.206;6.888;2023-12-04T08:23:19;2.20;99.90
5246;DHT22;54412;51.206;6.888;2023-12-04T08:25:45;2.30;99.90
5246;DHT22;54412;51.206;6.888;2023-12-04T08:28:11;2.30;99.90
5246;DHT22;54412;51.206;6.888;2023-12-04T08:30:37;2.30;99.90
5246;DHT22;54412;51.206;6.888;2023-12-04T08:33:03;2.30;99.90
5246;DHT22;54412;51.206;6.888;2023-12-04T08:35:29;2.30;99.90
5246;DHT22;54412;51.206;6.888;2023-12-04T08:37:55;2.40;99.90
5246;DHT22;54412;51.206;6.888;2023-12-04T08:40:21;2.50;99.90
5246;DHT22;54412;51.206;6.888;2023-12-04T08:42:47;2.50;99.90
5246;DHT22;54412;51.206;6.888;2023-12-04T08:45:13;2.50;99.90
5246;DHT22;54412;51.206;6.888;2023-12-04T08:47:38;2.50;99.90
5246;DHT22;54412;51.206;6.888;2023-12-04T08:50:05;2.40;99.90
5246;DHT22;54412;51.206;6.888;2023-12-04T08:52:32;2.40;99.90
5246;DHT22;54412;51.206;6.888;2023-12-04T08:54:57;2.40;99.90
5246;DHT22;54412;51.206;6.888;2023-12-04T08:57:23;2.40;99.90
5246;DHT22;54412;51.206;6.888;2023-12-04T08:59:48;2.40;99.90
5246;DHT22;54412;51.206;6.888;2023-12-04T09:02:14;2.50;99.90
5246;DHT22;54412;51.206;6.888;2023-12-04T09:04:40;2.40;99.90
5246;DHT22;54412;51.206;6.888;2023-12-04T09:07:05;2.50;99.90
5246;DHT22;54412;51.206;6.888;2023-12-04T09:09:31;2.50;99.90
5246;DHT22;54412;51.206;6.888;2023-12-04T09:11:57;2.60;99.90
5246;DHT22;54412;51.206;6.888;2023-12-04T09:14:23;2.50;99.90
5246;DHT22;54412;51.206;6.888;2023-12-04T09:16:49;2.60;99.90
5246;DHT22;54412;51.206;6.888;2023-12-04T09:19:15;2.60;99.90
5246;DHT22;54412;51.206;6.888;2023-12-04T09:21:40;2.60;99.90
5246;DHT22;54412;51.206;6.888;2023-12-04T09:24:06;2.70;99.90
5246;DHT22;54412;51.206;6.888;2023-12-04T09:26:32;2.70;99.90
5246;DHT22;54412;51.206;6.888;2023-12-04T09:28:57;2.60;99.90
5246;DHT22;54412;51.206;6.888;2023-12-04T09:31:23;2.70;99.90
5246;DHT22;54412;51.206;6.888;2023-12-04T09:33:49;2.60;99.90
5246;DHT22;54412;51.206;6.888;2023-12-04T09:36:14;2.70;99.90
5246;DHT22;54412;51.206;6.888;2023-12-04T09:38:40;2.80;99.90
5246;DHT22;54412;51.206;6.888;2023-12-04T09:41:06;2.70;99.90
5246;DHT22;54412;51.206;6.888;2023-12-04T09:43:34;2.70;99.90
5246;DHT22;54412;51.206;6.888;2023-12-04T09:46:01;2.70;99.90
5246;DHT22;54412;51.206;6.888;2023-12-04T09:48:27;2.70;99.90
5246;DHT22;54412;51.206;6.888;2023-12-04T09:50:56;2.80;99.90
5246;DHT22;54412;51.206;6.888;2023-12-04T09:53:23;2.70;99.90
5246;DHT22;54412;51.206;6.888;2023-12-04T09:55:51;2.60;99.90
5246;DHT22;54412;51.206;6.888;2023-12-04T09:58:23;2.70;99.90
5246;DHT22;54412;51.206;6.888;2023-12-04T10:00:52;2.80;99.90
5246;DHT22;54412;51.206;6.888;2023-12-04T10:03:20;2.80;99.90
5246;DHT22;54412;51.206;6.888;2023-12-04T10:05:46;2.90;99.90
5246;DHT22;54412;51.206;6.888;2023-12-04T10:08:13;2.90;99.90
5246;DHT22;54412;51.206;6.888;2023-12-04T10:10:39;2.90;99.90
5246;DHT22;54412;51.206;6.888;2023-12-04T10:13:05;3.00;99.90
5246;DHT22;54412;51.206;6.888;2023-12-04T10:15:32;2.90;99.90
5246;DHT22;54412;51.206;6.888;2023-12-04T10:17:58;2.80;99.90
5246;DHT22;54412;51.206;6.888;2023-12-04T10:20:23;2.90;99.90
5246;DHT22;54412;51.206;6.888;2023-12-04T10:23:00;2.90;99.90
5246;DHT22;54412;51.206;6.888;2023-12-04T10:25:28;2.90;99.90
5246;DHT22;54412;51.206;6.888;2023-12-04T10:28:08;3.00;99.90
5246;DHT22;54412;51.206;6.888;2023-12-04T10:30:36;3.00;99.90
5246;DHT22;54412;51.206;6.888;2023-12-04T10:33:04;3.10;99.90
5246;DHT22;54412;51.206;6.888;2023-12-04T10:35:35;3.00;99.90
5246;DHT22;54412;51.206;6.888;2023-12-04T10:38:02;3.10;99.90
5246;DHT22;54412;51.206;6.888;2023-12-04T10:40:30;3.00;99.90
5246;DHT22;54412;51.206;6.888;2023-12-04T10:43:14;3.10;99.90
5246;DHT22;54412;51.206;6.888;2023-12-04T10:45:48;3.10;99.90
5246;DHT22;54412;51.206;6.888;2023-12-04T10:48:16;3.10;99.90
5246;DHT22;54412;51.206;6.888;2023-12-04T10:50:44;3.00;99.90
5246;DHT22;54412;51.206;6.888;2023-12-04T10:53:13;3.00;99.90
5246;DHT22;54412;51.206;6.888;2023-12-04T10:55:40;2.90;99.90
5246;DHT22;54412;51.206;6.888;2023-12-04T10:58:10;2.90;99.90
5246;DHT22;54412;51.206;6.888;2023-12-04T11:00:47;2.90;99.90
5246;DHT22;54412;51.206;6.888;2023-12-04T11:06:06;2.90;99.90
5246;DHT22;54412;51.206;6.888;2023-12-04T11:08:36;2.90;99.90
5246;DHT22;54412;51.206;6.888;2023-12-04T11:11:04;2.80;99.90
5246;DHT22;54412;51.206;6.888;2023-12-04T11:13:39;2.80;99.90
5246;DHT22;54412;51.206;6.888;2023-12-04T11:16:28;3.00;99.90
5246;DHT22;54412;51.206;6.888;2023-12-04T11:21:58;2.90;99.90
5246;DHT22;54412;51.206;6.888;2023-12-04T11:24:25;3.10;99.90
5246;DHT22;54412;51.206;6.888;2023-12-04T11:26:51;2.90;99.90
5246;DHT22;54412;51.206;6.888;2023-12-04T11:29:18;2.90;99.90
5246;DHT22;54412;51.206;6.888;2023-12-04T11:31:44;2.80;99.90
5246;DHT22;54412;51.206;6.888;2023-12-04T11:34:12;2.80;99.90
5246;DHT22;54412;51.206;6.888;2023-12-04T11:36:38;2.70;99.90
5246;DHT22;54412;51.206;6.888;2023-12-04T11:39:09;2.90;99.90
5246;DHT22;54412;51.206;6.888;2023-12-04T11:41:38;2.80;99.90
5246;DHT22;54412;51.206;6.888;2023-12-04T11:44:12;2.80;99.90
5246;DHT22;54412;51.206;6.888;2023-12-04T11:46:59;2.70;99.90
5246;DHT22;54412;51.206;6.888;2023-12-04T11:49:30;2.70;99.90
5246;DHT22;54412;51.206;6.888;2023-12-04T11:51:57;2.60;99.90
5246;DHT22;54412;51.206;6.888;2023-12-04T11:54:26;2.70;99.90
5246;DHT22;54412;51.206;6.888;2023-12-04T11:59:40;2.60;99.90
5246;DHT22;54412;51.206;6.888;2023-12-04T12:02:08;2.60;99.90
5246;DHT22;54412;51.206;6.888;2023-12-04T12:04:35;2.60;99.90
5246;DHT22;54412;51.206;6.888;2023-12-04T12:07:03;2.60;99.90
5246;DHT22;54412;51.206;6.888;2023-12-04T12:09:31;2.40;99.90
5246;DHT22;54412;51.206;6.888;2023-12-04T12:12:01;2.40;99.90
5246;DHT22;54412;51.206;6.888;2023-12-04T12:14:28;2.50;99.90
5246;DHT22;54412;51.206;6.888;2023-12-04T12:16:55;2.50;99.90
5246;DHT22;54412;51.206;6.888;2023-12-04T12:19:24;2.40;99.90
5246;DHT22;54412;51.206;6.888;2023-12-04T12:21:50;2.40;99.90
5246;DHT22;54412;51.206;6.888;2023-12-04T12:24:17;2.30;99.90
5246;DHT22;54412;51.206;6.888;2023-12-04T12:26:44;2.30;99.90
5246;DHT22;54412;51.206;6.888;2023-12-04T12:29:11;2.50;99.90
5246;DHT22;54412;51.206;6.888;2023-12-04T12:31:37;2.50;99.90
5246;DHT22;54412;51.206;6.888;2023-12-04T12:34:03;2.50;99.90
5246;DHT22;54412;51.206;6.888;2023-12-04T12:36:29;2.60;99.90
5246;DHT22;54412;51.206;6.888;2023-12-04T12:39:01;2.60;99.90
5246;DHT22;54412;51.206;6.888;2023-12-04T12:41:29;2.60;99.90
5246;DHT22;54412;51.206;6.888;2023-12-04T12:43:55;2.60;99.90
5246;DHT22;54412;51.206;6.888;2023-12-04T12:46:22;2.60;99.90
5246;DHT22;54412;51.206;6.888;2023-12-04T12:48:48;2.60;99.90
5246;DHT22;54412;51.206;6.888;2023-12-04T12:51:13;2.60;99.90
5246;DHT22;54412;51.206;6.888;2023-12-04T12:53:39;2.70;99.90
5246;DHT22;54412;51.206;6.888;2023-12-04T12:56:06;2.70;99.90
5246;DHT22;54412;51.206;6.888;2023-12-04T12:58:33;2.60;99.90
5246;DHT22;54412;51.206;6.888;2023-12-04T13:01:00;2.70;99.90
5246;DHT22;54412;51.206;6.888;2023-12-04T13:03:28;2.60;99.90
5246;DHT22;54412;51.206;6.888;2023-12-04T13:05:56;2.60;99.90
5246;DHT22;54412;51.206;6.888;2023-12-04T13:08:22;2.70;99.90
5246;DHT22;54412;51.206;6.888;2023-12-04T13:10:48;2.60;99.90
5246;DHT22;54412;51.206;6.888;2023-12-04T13:13:15;2.60;99.90
5246;DHT22;54412;51.206;6.888;2023-12-04T13:15:41;2.70;99.90
5246;DHT22;54412;51.206;6.888;2023-12-04T13:18:08;2.70;99.90
5246;DHT22;54412;51.206;6.888;2023-12-04T13:20:34;2.70;99.90
5246;DHT22;54412;51.206;6.888;2023-12-04T13:23:01;2.60;99.90
5246;DHT22;54412;51.206;6.888;2023-12-04T13:25:27;2.60;99.90
5246;DHT22;54412;51.206;6.888;2023-12-04T13:27:53;2.60;99.90
5246;DHT22;54412;51.206;6.888;2023-12-04T13:30:19;2.60;99.90
5246;DHT22;54412;51.206;6.888;2023-12-04T13:32:45;2.60;99.90
5246;DHT22;54412;51.206;6.888;2023-12-04T13:35:11;2.70;99.90
5246;DHT22;54412;51.206;6.888;2023-12-04T13:37:37;2.80;99.90
5246;DHT22;54412;51.206;6.888;2023-12-04T13:40:05;2.80;99.90
5246;DHT22;54412;51.206;6.888;2023-12-04T13:42:38;2.70;99.90
5246;DHT22;54412;51.206;6.888;2023-12-04T13:45:22;2.80;99.90
5246;DHT22;54412;51.206;6.888;2023-12-04T13:47:49;2.80;99.90
5246;DHT22;54412;51.206;6.888;2023-12-04T13:50:15;2.80;99.90
5246;DHT22;54412;51.206;6.888;2023-12-04T13:52:42;2.80;99.90
5246;DHT22;54412;51.206;6.888;2023-12-04T13:55:09;2.80;99.90
5246;DHT22;54412;51.206;6.888;2023-12-04T13:57:46;2.80;99.90
5246;DHT22;54412;51.206;6.888;2023-12-04T14:00:24;2.90;99.90
5246;DHT22;54412;51.206;6.888;2023-12-04T14:02:50;2.90;99.90
5246;DHT22;54412;51.206;6.888;2023-12-04T14:05:19;2.90;99.90
5246;DHT22;54412;51.206;6.888;2023-12-04T14:07:48;3.00;99.90
5246;DHT22;54412;51.206;6.888;2023-12-04T14:10:14;3.10;99.90
5246;DHT22;54412;51.206;6.888;2023-12-04T14:12:40;2.90;99.90
5246;DHT22;54412;51.206;6.888;2023-12-04T14:15:06;2.90;99.90
5246;DHT22;54412;51.206;6.888;2023-12-04T14:17:32;3.00;99.90
5246;DHT22;54412;51.206;6.888;2023-12-04T14:19:58;2.90;99.90
5246;DHT22;54412;51.206;6.888;2023-12-04T14:22:24;3.00;99.90
5246;DHT22;54412;51.206;6.888;2023-12-04T14:24:51;3.10;99.90
5246;DHT22;54412;51.206;6.888;2023-12-04T14:27:17;3.10;99.90
5246;DHT22;54412;51.206;6.888;2023-12-04T14:29:43;3.10;99.90
5246;DHT22;54412;51.206;6.888;2023-12-04T14:32:10;3.10;99.90
5246;DHT22;54412;51.206;6.888;2023-12-04T14:34:35;3.10;99.90
5246;DHT22;54412;51.206;6.888;2023-12-04T14:37:01;3.10;99.90
5246;DHT22;54412;51.206;6.888;2023-12-04T14:39:27;3.10;99.90
5246;DHT22;54412;51.206;6.888;2023-12-04T14:41:53;3.00;99.90
5246;DHT22;54412;51.206;6.888;2023-12-04T14:44:19;3.00;99.90
5246;DHT22;54412;51.206;6.888;2023-12-04T14:46:44;2.90;99.90
5246;DHT22;54412;51.206;6.888;2023-12-04T14:49:11;2.90;99.90
5246;DHT22;54412;51.206;6.888;2023-12-04T14:51:36;2.90;99.90
5246;DHT22;54412;51.206;6.888;2023-12-04T14:54:02;2.90;99.90
5246;DHT22;54412;51.206;6.888;2023-12-04T14:56:47;2.80;99.90
5246;DHT22;54412;51.206;6.888;2023-12-04T14:59:36;2.90;99.90
5246;DHT22;54412;51.206;6.888;2023-12-04T15:02:20;2.90;99.90
5246;DHT22;54412;51.206;6.888;2023-12-04T15:05:13;2.90;99.90
5246;DHT22;54412;51.206;6.888;2023-12-04T15:07:59;2.90;99.90
5246;DHT22;54412;51.206;6.888;2023-12-04T15:10:43;3.00;99.90
5246;DHT22;54412;51.206;6.888;2023-12-04T15:13:29;3.00;99.90
5246;DHT22;54412;51.206;6.888;2023-12-04T15:16:13;3.00;99.90
5246;DHT22;54412;51.206;6.888;2023-12-04T15:18:39;3.00;99.90
5246;DHT22;54412;51.206;6.888;2023-12-04T15:21:18;3.00;99.90
5246;DHT22;54412;51.206;6.888;2023-12-04T15:23:44;3.00;99.90
5246;DHT22;54412;51.206;6.888;2023-12-04T15:26:10;3.10;99.90
5246;DHT22;54412;51.206;6.888;2023-12-04T15:28:38;3.10;99.90
5246;DHT22;54412;51.206;6.888;2023-12-04T15:31:04;3.20;99.90
5246;DHT22;54412;51.206;6.888;2023-12-04T15:33:30;3.10;99.90
5246;DHT22;54412;51.206;6.888;2023-12-04T15:35:56;3.10;99.90
5246;DHT22;54412;51.206;6.888;2023-12-04T15:38:22;3.10;99.90
5246;DHT22;54412;51.206;6.888;2023-12-04T15:40:48;3.00;99.90
5246;DHT22;54412;51.206;6.888;2023-12-04T15:43:14;3.10;99.90
5246;DHT22;54412;51.206;6.888;2023-12-04T15:45:40;3.10;99.90
5246;DHT22;54412;51.206;6.888;2023-12-04T15:48:06;3.00;99.90
5246;DHT22;54412;51.206;6.888;2023-12-04T15:50:33;3.00;99.90
5246;DHT22;54412;51.206;6.888;2023-12-04T15:52:59;2.90;99.90
5246;DHT22;54412;51.206;6.888;2023-12-04T15:55:25;2.80;99.90
5246;DHT22;54412;51.206;6.888;2023-12-04T15:57:52;2.90;99.90
5246;DHT22;54412;51.206;6.888;2023-12-04T16:00:29;2.80;99.90
5246;DHT22;54412;51.206;6.888;2023-12-04T16:02:56;2.60;99.90
5246;DHT22;54412;51.206;6.888;2023-12-04T16:05:22;2.70;99.90
5246;DHT22;54412;51.206;6.888;2023-12-04T16:07:49;2.70;99.90
5246;DHT22;54412;51.206;6.888;2023-12-04T16:10:15;2.70;99.90